Time;durP1;ratioP1;P1;durP2;ratioP2;P2;SDS_P1;SDS_P2;PMS_P1;PMS_P2;Temp;Humidity;BMP_temperature;BMP_pressure;BME280_temperature;BME280_humidity;BME280_pressure;Samples;Min_cycle;Max_cycle;Signal;HPM_P1;HPM_P2
2022/12/19 03:58:21;;;;;;;;;;;;;;;;;;;;;
2022/12/19 04:00:26;;;;;;;91.63;38.55;;;2.60;99.90;;;;;;6167330;23;20030;-92
2022/12/19 04:03:05;;;;;;;89.60;39.13;;;1.60;99.90;;;;;;6160599;23;20059;-91
2022/12/19 04:05:49;;;;;;;89.95;39.00;;;2.20;99.90;;;;;;6162713;23;20121;-91
2022/12/19 04:08:25;;;;;;;95.40;39.35;;;2.60;99.90;;;;;;6163300;23;20044;-91
2022/12/19 04:11:18;;;;;;;96.97;41.95;;;2.10;99.90;;;;;;6160304;23;20021;-91
2022/12/19 04:14:11;;;;;;;94.22;40.50;;;1.40;99.90;;;;;;6143098;23;20020;-91
2022/12/19 04:16:55;;;;;;;94.70;39.88;;;2.60;99.90;;;;;;6149709;23;20020;-92
2022/12/19 04:19:43;;;;;;;;;;;;;;;;;;;;;
2022/12/19 04:22:19;;;;;;;94.90;41.85;;;1.60;99.90;;;;;;6185382;23;20023;-90
2022/12/19 04:24:51;;;;;;;104.47;41.70;;;3.10;99.90;;;;;;6159235;23;20071;-89
2022/12/19 04:27:19;;;;;;;91.97;41.47;;;2.90;99.90;;;;;;6160653;23;20048;-90
2022/12/19 04:29:46;;;;;;;100.57;42.33;;;1.80;99.90;;;;;;6159824;23;20017;-89
2022/12/19 04:32:13;;;;;;;103.85;42.50;;;2.70;99.90;;;;;;6161173;23;20036;-88
2022/12/19 04:34:39;;;;;;;100.50;42.58;;;1.90;99.90;;;;;;6161142;23;20445;-89
2022/12/19 04:37:06;;;;;;;90.28;42.00;;;1.80;99.90;;;;;;6161520;23;20009;-88
2022/12/19 04:39:32;;;;;;;100.38;41.90;;;2.70;99.90;;;;;;6161790;23;20024;-89
2022/12/19 04:41:57;;;;;;;92.57;41.03;;;2.00;99.90;;;;;;6185190;23;20024;-89
2022/12/19 04:44:23;;;;;;;91.10;41.03;;;2.10;99.90;;;;;;6161291;23;20016;-88
2022/12/19 04:46:49;;;;;;;93.07;42.20;;;2.00;99.90;;;;;;6159473;23;20081;-87
2022/12/19 04:49:15;;;;;;;90.28;42.47;;;2.20;99.90;;;;;;6161141;23;20108;-88
2022/12/19 04:51:40;;;;;;;91.93;40.53;;;2.00;99.90;;;;;;6161855;23;20469;-89
2022/12/19 04:54:06;;;;;;;90.22;40.47;;;2.20;99.90;;;;;;6160227;23;20012;-88
2022/12/19 04:56:32;;;;;;;87.50;40.67;;;2.70;99.90;;;;;;6157095;23;20088;-90
2022/12/19 04:59:00;;;;;;;92.97;42.58;;;2.10;99.90;;;;;;6156086;23;20025;-89
2022/12/19 05:01:26;;;;;;;88.95;41.28;;;2.20;99.90;;;;;;6157016;23;20096;-90
2022/12/19 05:03:52;;;;;;;100.63;43.45;;;2.00;99.90;;;;;;6157178;23;20056;-90
2022/12/19 05:06:23;;;;;;;99.88;43.42;;;3.40;99.90;;;;;;6157353;23;20024;-91
2022/12/19 05:08:53;;;;;;;100.15;42.65;;;2.10;99.90;;;;;;6157254;23;20103;-92
2022/12/19 05:11:27;;;;;;;93.32;43.38;;;2.00;99.90;;;;;;6157634;23;20481;-91
2022/12/19 05:13:55;;;;;;;;;;;1.50;99.90;;;;;;6157644;23;20497;-90
2022/12/19 05:16:20;;;;;;;101.97;43.05;;;2.80;99.90;;;;;;6157553;23;19918;-90
2022/12/19 05:18:56;;;;;;;;;;;;;;;;;;;;;
2022/12/19 05:21:25;;;;;;;96.90;42.70;;;3.20;99.90;;;;;;6182442;23;20021;-90
2022/12/19 05:24:09;;;;;;;97.70;43.88;;;3.30;99.90;;;;;;6155971;23;20019;-90
2022/12/19 05:26:43;;;;;;;106.00;44.75;;;2.10;99.90;;;;;;6156308;23;20053;-88
2022/12/19 05:29:13;;;;;;;97.45;44.42;;;2.30;99.90;;;;;;6155949;23;20047;-88
2022/12/19 05:31:53;;;;;;;102.45;42.60;;;2.30;99.90;;;;;;6157384;23;20024;-90
2022/12/19 05:34:21;;;;;;;98.68;43.88;;;2.60;99.90;;;;;;6156247;23;20028;-89
2022/12/19 05:36:47;;;;;;;103.70;43.83;;;2.30;99.90;;;;;;6156152;23;20025;-88
2022/12/19 05:39:15;;;;;;;100.30;44.50;;;2.30;99.90;;;;;;6155827;23;20052;-89
2022/12/19 05:41:48;;;;;;;104.35;43.30;;;2.30;99.90;;;;;;6181096;23;20013;-88
2022/12/19 05:44:14;;;;;;;103.68;44.75;;;2.90;99.90;;;;;;6155259;23;20218;-89
2022/12/19 05:46:42;;;;;;;92.68;41.20;;;2.30;99.90;;;;;;6156584;23;20104;-88
2022/12/19 05:49:08;;;;;;;96.05;43.05;;;2.30;99.90;;;;;;6155260;23;20024;-89
2022/12/19 05:51:40;;;;;;;93.57;43.22;;;1.90;99.90;;;;;;6155894;23;20171;-86
2022/12/19 05:54:06;;;;;;;102.07;43.15;;;2.40;99.90;;;;;;6178790;23;20024;-88
2022/12/19 05:56:32;;;;;;;101.80;42.50;;;2.30;99.90;;;;;;6179813;23;20017;-88
2022/12/19 05:58:58;;;;;;;96.82;42.92;;;2.50;99.90;;;;;;6152852;23;20013;-87
2022/12/19 06:01:26;;;;;;;97.88;42.42;;;2.40;99.90;;;;;;6179490;23;20076;-87
2022/12/19 06:03:52;;;;;;;97.35;42.67;;;2.60;99.90;;;;;;6153870;23;20019;-87
2022/12/19 06:06:21;;;;;;;89.80;38.72;;;2.60;99.90;;;;;;6154332;23;20048;-87
2022/12/19 06:08:50;;;;;;;86.30;37.50;;;2.80;99.90;;;;;;6152161;23;20075;-86
2022/12/19 06:11:16;;;;;;;84.07;38.28;;;2.40;99.90;;;;;;6153811;23;20064;-87
2022/12/19 06:13:42;;;;;;;84.68;37.22;;;2.60;99.90;;;;;;6153784;23;20020;-87
2022/12/19 06:16:12;;;;;;;82.20;36.60;;;2.60;99.90;;;;;;6178526;23;20100;-88
2022/12/19 06:18:40;;;;;;;80.88;36.58;;;2.40;99.90;;;;;;6179267;23;20414;-87
2022/12/19 06:21:09;;;;;;;87.82;37.70;;;2.70;99.90;;;;;;6154305;23;20021;-87
2022/12/19 06:23:36;;;;;;;79.13;34.58;;;3.10;99.90;;;;;;6154339;23;20168;-86
2022/12/19 06:26:05;;;;;;;74.20;34.55;;;2.80;99.90;;;;;;6154103;23;20021;-88
2022/12/19 06:28:31;;;;;;;75.43;35.10;;;2.70;99.90;;;;;;6155066;23;20079;-87
2022/12/19 06:30:58;;;;;;;70.25;33.97;;;3.60;99.90;;;;;;6153501;23;20327;-88
2022/12/19 06:33:24;;;;;;;73.75;33.97;;;2.80;99.90;;;;;;6154302;23;20025;-87
2022/12/19 06:35:58;;;;;;;74.30;34.83;;;2.90;99.90;;;;;;6178220;23;20013;-88
2022/12/19 06:38:25;;;;;;;65.97;32.38;;;2.70;99.90;;;;;;6154916;23;20073;-88
2022/12/19 06:43:35;;;;;;;73.43;32.25;;;2.90;99.90;;;;;;6178174;23;20025;-87
2022/12/19 06:46:01;;;;;;;71.75;32.20;;;2.80;99.90;;;;;;6177991;23;20025;-87
2022/12/19 06:48:27;;;;;;;67.03;30.67;;;2.90;99.90;;;;;;6177457;23;20021;-87
2022/12/19 06:50:53;;;;;;;74.18;33.38;;;3.60;99.90;;;;;;6153171;23;20442;-86
2022/12/19 06:53:19;;;;;;;67.97;31.70;;;3.30;99.90;;;;;;6178360;23;20024;-87
2022/12/19 06:55:45;;;;;;;68.10;31.63;;;3.00;99.90;;;;;;6157016;23;20019;-89
2022/12/19 06:58:11;;;;;;;63.67;30.13;;;3.00;99.90;;;;;;6160562;23;20032;-87
2022/12/19 07:00:37;;;;;;;61.67;31.33;;;3.20;99.90;;;;;;6157609;23;20005;-86
2022/12/19 07:03:05;;;;;;;58.90;28.52;;;3.30;99.90;;;;;;6158220;23;20017;-87
2022/12/19 07:05:32;;;;;;;56.38;26.63;;;3.20;99.90;;;;;;6158647;23;20067;-87
2022/12/19 07:07:58;;;;;;;56.65;26.58;;;3.90;99.90;;;;;;6158380;23;20052;-87
2022/12/19 07:10:23;;;;;;;53.20;26.70;;;3.50;99.90;;;;;;6159147;23;20047;-88
2022/12/19 07:12:49;;;;;;;55.90;25.98;;;3.40;99.90;;;;;;6158970;23;20016;-89
2022/12/19 07:15:15;;;;;;;52.90;24.52;;;3.60;99.90;;;;;;6159885;23;20021;-89
2022/12/19 07:17:41;;;;;;;60.03;26.20;;;3.40;99.90;;;;;;6160750;23;20024;-88
2022/12/19 07:20:10;;;;;;;50.40;23.00;;;3.40;99.90;;;;;;6160147;23;20027;-88
2022/12/19 07:22:36;;;;;;;54.65;24.42;;;3.40;99.90;;;;;;6159515;23;20070;-88
2022/12/19 07:25:04;;;;;;;46.95;23.60;;;3.50;99.90;;;;;;6158994;23;20550;-87
2022/12/19 07:27:31;;;;;;;52.35;25.15;;;3.60;99.90;;;;;;6184657;23;20017;-89
2022/12/19 07:29:57;;;;;;;45.35;22.95;;;3.50;99.90;;;;;;6158665;23;20519;-88
2022/12/19 07:32:23;;;;;;;48.95;23.92;;;3.50;99.90;;;;;;6160264;23;20020;-89
2022/12/19 07:35:21;;;;;;;51.22;23.45;;;3.60;99.90;;;;;;6160801;23;20024;-92
2022/12/19 07:37:53;;;;;;;50.63;22.55;;;4.30;99.90;;;;;;6185198;23;20085;-92
2022/12/19 07:40:19;;;;;;;40.63;20.52;;;4.10;99.90;;;;;;6161691;23;20063;-91
2022/12/19 07:42:51;;;;;;;49.33;22.90;;;3.70;99.90;;;;;;6161077;23;20025;-91
2022/12/19 07:45:45;;;;;;;39.85;20.23;;;3.80;99.90;;;;;;6161699;23;20058;-93
2022/12/19 07:49:05;;;;;;;40.58;20.65;;;3.80;99.90;;;;;;6187219;23;20025;-92
2022/12/19 07:51:34;;;;;;;47.90;22.30;;;3.80;99.90;;;;;;6163759;23;20040;-93
2022/12/19 07:54:30;;;;;;;;;;;;;;;;;;;;;
2022/12/19 07:56:54;;;;;;;45.28;21.23;;;4.10;99.90;;;;;;6176344;23;20025;-92
2022/12/19 07:59:30;;;;;;;38.85;20.52;;;4.10;99.90;;;;;;6156344;23;20025;-95
2022/12/19 08:02:16;;;;;;;44.90;21.13;;;4.00;99.90;;;;;;6156773;23;20024;-93
2022/12/19 08:05:07;;;;;;;39.97;21.23;;;4.10;99.90;;;;;;6109085;23;20025;-93
2022/12/19 08:08:34;;;;;;;37.38;19.45;;;3.30;99.90;;;;;;6151438;23;20044;-93
2022/12/19 08:11:52;;;;;;;43.35;21.95;;;4.00;99.90;;;;;;6137838;23;20049;-92
2022/12/19 08:18:45;;;;;;;;;;;;;;;;;;;;;
2022/12/19 08:21:14;;;;;;;37.50;18.95;;;4.20;99.90;;;;;;6115496;23;20021;-92
2022/12/19 08:24:25;;;;;;;41.10;20.40;;;4.80;99.90;;;;;;6161177;23;20023;-95
2022/12/19 08:30:14;;;;;;;;;;;;;;;;;;;;;
2022/12/19 08:40:28;;;;;;;37.95;20.38;;;4.40;99.90;;;;;;6127013;23;20045;-96
2022/12/19 08:50:47;;;;;;;33.92;18.02;;;4.70;99.90;;;;;;6106060;23;20032;-93
2022/12/19 09:00:26;;;;;;;;;;;;;;;;;;;;;
2022/12/19 09:04:04;;;;;;;32.70;19.30;;;4.80;99.90;;;;;;6185671;23;20036;-95
2022/12/19 09:23:01;;;;;;;34.05;18.40;;;5.10;99.90;;;;;;6114286;23;20025;-90
2022/12/19 09:29:03;;;;;;;36.10;19.92;;;5.00;99.90;;;;;;6120021;23;20040;-90
2022/12/19 09:32:19;;;;;;;34.47;20.40;;;5.00;99.90;;;;;;6177179;23;20340;-90
2022/12/19 09:36:23;;;;;;;35.03;20.27;;;5.10;99.90;;;;;;6120307;23;20021;-92
2022/12/19 09:39:42;;;;;;;32.90;20.83;;;4.60;99.90;;;;;;6095138;23;20028;-91
2022/12/19 09:51:02;;;;;;;36.47;20.52;;;5.50;99.90;;;;;;6005662;23;20100;-91
2022/12/19 09:54:31;;;;;;;38.55;22.67;;;5.00;99.90;;;;;;6080901;23;20177;-90
2022/12/19 10:01:35;;;;;;;35.55;22.35;;;5.00;99.90;;;;;;6147908;23;20319;-94
2022/12/19 10:09:01;;;;;;;;;;;;;;;;;;;;;
2022/12/19 10:13:23;;;;;;;;;;;;;;;;;;;;;
2022/12/19 10:30:47;;;;;;;34.45;21.70;;;6.10;99.90;;;;;;6175813;23;20021;-90
2022/12/19 10:34:15;;;;;;;36.20;21.48;;;6.00;99.90;;;;;;6156920;23;20017;-92
2022/12/19 10:56:30;;;;;;;33.65;21.00;;;5.80;99.90;;;;;;5909463;24;20032;-91
2022/12/19 11:07:08;;;;;;;;;;;;;;;;;;;;;
2022/12/19 11:14:14;;;;;;;28.40;18.67;;;6.60;99.90;;;;;;5868738;24;20120;-94
2022/12/19 11:17:07;;;;;;;28.25;17.90;;;6.60;99.90;;;;;;6072741;23;20026;-90
2022/12/19 11:24:18;;;;;;;;;;;;;;;;;;;;;
2022/12/19 11:26:57;;;;;;;;;;;;;;;;;;;;;
2022/12/19 11:30:06;;;;;;;25.92;17.05;;;6.80;99.90;;;;;;6110420;23;20070;-91
2022/12/19 11:32:44;;;;;;;22.85;16.95;;;6.90;99.90;;;;;;6122425;23;20077;-90
2022/12/19 11:35:44;;;;;;;;;;;;;;;;;;;;;
2022/12/19 11:42:13;;;;;;;26.17;16.88;;;6.90;99.90;;;;;;6122752;23;20104;-91
2022/12/19 11:45:06;;;;;;;23.23;15.90;;;7.00;99.90;;;;;;6126754;23;20052;-92
2022/12/19 11:48:34;;;;;;;23.37;16.07;;;7.00;99.90;;;;;;6112096;23;20028;-88
2022/12/19 11:51:23;;;;;;;24.95;16.17;;;6.90;99.90;;;;;;6129736;23;20740;-87
2022/12/19 11:53:53;;;;;;;25.75;16.27;;;7.10;99.90;;;;;;6122770;23;20104;-88
2022/12/19 11:56:34;;;;;;;;;;;;;;;;;;;;;
2022/12/19 11:59:11;;;;;;;25.92;15.90;;;7.20;99.90;;;;;;6182976;23;20023;-88
2022/12/19 12:01:48;;;;;;;27.20;15.90;;;7.00;99.90;;;;;;6158928;23;20013;-88
2022/12/19 12:04:28;;;;;;;22.13;15.68;;;7.30;99.90;;;;;;6158257;23;20024;-88
2022/12/19 12:06:58;;;;;;;24.85;14.82;;;7.30;99.90;;;;;;6183417;23;20337;-88
2022/12/19 12:09:48;;;;;;;20.42;14.23;;;7.10;99.90;;;;;;6158815;23;20448;-88
2022/12/19 12:12:22;;;;;;;28.55;14.82;;;7.30;99.90;;;;;;6183561;23;20099;-88
2022/12/19 12:14:59;;;;;;;21.50;13.45;;;7.20;99.90;;;;;;6183357;23;20013;-88
2022/12/19 12:17:39;;;;;;;20.55;14.10;;;7.10;99.90;;;;;;6159102;23;20099;-88
2022/12/19 12:20:25;;;;;;;23.63;14.25;;;7.30;99.90;;;;;;6158291;23;20021;-88
2022/12/19 12:23:26;;;;;;;;;;;;;;;;;;;;;
2022/12/19 12:26:14;;;;;;;20.48;13.20;;;7.30;99.90;;;;;;6182964;23;20017;-89
2022/12/19 12:29:06;;;;;;;19.77;13.13;;;7.60;99.90;;;;;;6159290;23;20095;-88
2022/12/19 12:31:46;;;;;;;19.05;12.23;;;7.40;99.90;;;;;;6183328;23;20022;-88
2022/12/19 12:34:16;;;;;;;20.85;14.02;;;7.40;99.90;;;;;;6158752;23;20040;-88
2022/12/19 12:37:09;;;;;;;20.35;13.23;;;7.40;99.90;;;;;;6183902;23;20479;-88
2022/12/19 12:39:45;;;;;;;20.35;13.35;;;7.60;99.90;;;;;;6158248;23;20083;-90
2022/12/19 12:42:28;;;;;;;18.50;13.95;;;7.70;99.90;;;;;;6184535;23;20023;-88
2022/12/19 12:45:02;;;;;;;23.42;13.63;;;7.50;99.90;;;;;;6157666;23;20090;-87
2022/12/19 12:47:29;;;;;;;19.17;13.60;;;7.70;99.90;;;;;;6158684;23;20452;-88
2022/12/19 12:50:07;;;;;;;20.45;13.23;;;7.60;99.90;;;;;;6157788;23;20039;-87
2022/12/19 12:52:44;;;;;;;20.38;13.73;;;7.60;99.90;;;;;;6183087;23;20017;-87
2022/12/19 12:55:25;;;;;;;22.35;13.25;;;7.70;99.90;;;;;;6159866;23;20019;-87
2022/12/19 12:57:50;;;;;;;23.05;13.43;;;7.80;99.90;;;;;;6155206;23;20021;-90
2022/12/19 13:00:30;;;;;;;21.70;13.57;;;7.80;99.90;;;;;;6155199;23;20028;-88
2022/12/19 13:03:04;;;;;;;19.50;13.73;;;7.50;99.90;;;;;;6155479;23;20013;-88
2022/12/19 13:05:40;;;;;;;18.67;12.35;;;7.80;99.90;;;;;;6155771;23;20036;-87
2022/12/19 13:08:40;;;;;;;16.92;11.52;;;7.60;99.90;;;;;;6179423;23;20013;-88
2022/12/19 13:14:33;;;;;;;20.08;13.55;;;7.40;99.90;;;;;;6179577;23;20028;-88
2022/12/19 13:17:02;;;;;;;20.60;12.55;;;7.60;99.90;;;;;;6154978;23;20044;-87
2022/12/19 13:19:30;;;;;;;18.67;12.35;;;7.70;99.90;;;;;;6155668;23;20025;-88
2022/12/19 13:22:15;;;;;;;26.92;12.77;;;7.80;99.90;;;;;;6178564;23;20013;-88
2022/12/19 13:24:49;;;;;;;23.17;12.18;;;7.80;99.90;;;;;;6161487;23;20017;-88
2022/12/19 13:27:18;;;;;;;19.75;11.30;;;7.70;99.90;;;;;;6179180;23;20318;-87
2022/12/19 13:29:59;;;;;;;16.23;11.63;;;7.80;99.90;;;;;;6155490;23;20012;-86
2022/12/19 13:32:39;;;;;;;17.27;11.65;;;7.70;99.90;;;;;;6179018;23;20031;-88
2022/12/19 13:35:12;;;;;;;20.38;12.57;;;7.90;99.90;;;;;;6152853;23;20025;-88
2022/12/19 13:37:38;;;;;;;15.35;11.40;;;7.80;99.90;;;;;;6155722;23;20040;-87
2022/12/19 13:40:13;;;;;;;16.90;11.77;;;7.80;99.90;;;;;;6156804;23;20049;-89
2022/12/19 13:45:55;;;;;;;18.42;11.68;;;7.20;99.90;;;;;;6179879;23;20107;-88
2022/12/19 13:48:28;;;;;;;18.67;12.25;;;7.90;99.90;;;;;;6156563;23;20130;-87
2022/12/19 13:50:56;;;;;;;18.35;12.90;;;7.70;99.90;;;;;;6152362;23;20063;-87
2022/12/19 13:53:25;;;;;;;18.88;12.85;;;7.70;99.90;;;;;;6177603;23;20059;-88
2022/12/19 13:55:58;;;;;;;19.42;13.07;;;7.70;99.90;;;;;;6175667;23;20012;-87
2022/12/19 13:58:28;;;;;;;19.83;12.50;;;7.90;99.90;;;;;;6176690;23;20092;-87
2022/12/19 14:01:01;;;;;;;23.08;13.45;;;7.90;99.90;;;;;;6153033;23;20017;-86
2022/12/19 14:03:44;;;;;;;;;;;7.40;99.90;;;;;;6177333;23;20099;-89
2022/12/19 14:06:26;;;;;;;18.13;12.57;;;7.90;99.90;;;;;;6154729;23;19920;-87
2022/12/19 14:08:57;;;;;;;21.73;13.18;;;7.80;99.90;;;;;;6150796;23;20066;-87
2022/12/19 14:11:23;;;;;;;17.10;12.88;;;7.70;99.90;;;;;;6153957;23;20468;-87
2022/12/19 14:16:38;;;;;;;20.73;13.98;;;7.80;99.90;;;;;;6178586;23;20024;-88
2022/12/19 14:19:17;;;;;;;19.92;14.20;;;7.70;99.90;;;;;;6176349;23;20059;-88
2022/12/19 14:21:43;;;;;;;21.00;14.00;;;7.80;99.90;;;;;;6178086;23;20052;-87
2022/12/19 14:24:11;;;;;;;20.17;14.00;;;7.70;99.90;;;;;;6174193;23;20178;-88
2022/12/19 14:26:38;;;;;;;24.33;14.55;;;7.90;99.90;;;;;;6177154;23;20044;-87
2022/12/19 14:29:13;;;;;;;22.20;14.05;;;7.80;99.90;;;;;;6176549;23;20093;-88
2022/12/19 14:31:41;;;;;;;24.48;13.70;;;8.00;99.90;;;;;;6151611;23;20096;-88
2022/12/19 14:34:35;;;;;;;19.17;13.77;;;7.90;99.90;;;;;;6177404;23;20515;-88
2022/12/19 14:37:01;;;;;;;20.60;14.05;;;8.10;99.90;;;;;;6154568;23;20020;-90
2022/12/19 14:39:37;;;;;;;20.67;13.27;;;7.80;99.90;;;;;;6153564;23;20017;-89
2022/12/19 14:50:27;;;;;;;18.77;11.48;;;7.80;99.90;;;;;;6215670;22;20038;-90
2022/12/19 14:53:08;;;;;;;18.65;11.63;;;7.80;99.90;;;;;;6186359;23;20028;-93
2022/12/19 14:55:47;;;;;;;;;;;;;;;;;;;;;
2022/12/19 14:58:28;;;;;;;17.88;10.13;;;7.90;99.90;;;;;;6215972;23;20027;-86
2022/12/19 15:00:53;;;;;;;16.80;10.13;;;8.10;99.90;;;;;;6186969;23;20016;-89
2022/12/19 15:03:24;;;;;;;16.10;10.68;;;7.90;99.90;;;;;;6188747;23;20099;-88
2022/12/19 15:05:51;;;;;;;14.75;10.02;;;8.00;99.90;;;;;;6185671;23;20016;-87
2022/12/19 15:08:29;;;;;;;19.20;10.25;;;7.90;99.90;;;;;;6213204;23;20031;-90
2022/12/19 15:13:17;;;;;;;14.10;9.65;;;7.50;99.90;;;;;;6191076;23;20046;-89
2022/12/19 15:14:17;;;;;;;17.85;10.18;;;8.00;99.90;;;;;;6204279;23;20521;-91
2022/12/19 15:16:48;;;;;;;14.63;9.30;;;8.00;99.90;;;;;;6165280;23;20016;-90
2022/12/19 15:19:22;;;;;;;15.05;10.25;;;7.80;99.90;;;;;;6190306;23;20456;-91
2022/12/19 15:21:48;;;;;;;14.70;8.35;;;7.90;99.90;;;;;;6215842;23;20016;-91
2022/12/19 15:32:03;;;;;;;15.93;8.70;;;7.90;99.90;;;;;;6124182;23;20085;-90
2022/12/19 15:34:41;;;;;;;11.93;8.60;;;8.00;99.90;;;;;;6194933;23;20004;-94
2022/12/19 15:37:28;;;;;;;12.93;8.55;;;8.00;99.90;;;;;;6192014;23;20404;-92
2022/12/19 15:40:29;;;;;;;13.00;8.05;;;7.10;99.90;;;;;;6215185;23;20058;-93
2022/12/19 15:44:27;;;;;;;11.23;7.95;;;7.50;99.90;;;;;;6191187;23;20035;-96
2022/12/19 15:47:35;;;;;;;11.43;7.70;;;7.90;99.90;;;;;;6182854;23;20020;-94
2022/12/19 15:50:12;;;;;;;11.48;7.35;;;7.80;99.90;;;;;;6212701;23;20020;-96
2022/12/19 15:52:38;;;;;;;11.75;7.28;;;7.90;99.90;;;;;;6186851;23;20056;-93
2022/12/19 15:55:05;;;;;;;12.10;7.55;;;8.10;99.90;;;;;;6185422;23;20024;-95
2022/12/19 15:57:55;;;;;;;11.70;8.13;;;7.90;99.90;;;;;;6187045;23;20424;-96
2022/12/19 16:00:31;;;;;;;10.80;8.23;;;7.90;99.90;;;;;;6213433;23;20020;-96
2022/12/19 16:03:04;;;;;;;15.95;8.65;;;8.20;99.90;;;;;;6189712;23;20047;-95
2022/12/19 16:05:31;;;;;;;14.10;9.43;;;7.90;99.90;;;;;;6191298;23;20009;-96
2022/12/19 16:07:57;;;;;;;18.33;9.10;;;8.10;99.90;;;;;;6195990;23;20469;-96
2022/12/19 16:10:25;;;;;;;15.15;9.50;;;7.90;99.90;;;;;;6187032;23;20084;-96
2022/12/19 16:12:54;;;;;;;16.00;9.43;;;8.00;99.90;;;;;;6189739;23;20131;-94
2022/12/19 16:15:29;;;;;;;14.40;8.90;;;7.90;99.90;;;;;;6187224;23;20009;-96
2022/12/19 16:18:02;;;;;;;17.15;10.63;;;7.90;99.90;;;;;;6186550;23;20020;-94
2022/12/19 16:20:44;;;;;;;;;;;;;;;;;;;;;
2022/12/19 16:23:33;;;;;;;14.85;9.77;;;7.80;99.90;;;;;;6209609;23;20017;-95
2022/12/19 16:26:17;;;;;;;;;;;;;;;;;;;;;
2022/12/19 16:29:05;;;;;;;;;;;;;;;;;;;;;
2022/12/19 16:32:02;;;;;;;16.20;10.98;;;7.80;99.90;;;;;;6211173;23;20024;-92
2022/12/19 16:34:29;;;;;;;21.15;11.98;;;7.80;99.90;;;;;;6185790;23;20460;-91
2022/12/19 16:37:00;;;;;;;19.65;11.23;;;7.90;99.90;;;;;;6184255;23;20020;-93
2022/12/19 16:39:36;;;;;;;;;;;;;;;;;;;;;
2022/12/19 16:42:18;;;;;;;17.33;11.38;;;7.60;99.90;;;;;;6212250;23;20078;-94
2022/12/19 16:45:22;;;;;;;16.10;11.43;;;7.80;99.90;;;;;;6185554;23;20838;-96
2022/12/19 16:47:52;;;;;;;20.10;11.13;;;7.70;99.90;;;;;;6185565;23;20034;-95
2022/12/19 16:51:16;;;;;;;17.55;12.18;;;7.80;99.90;;;;;;6192011;23;20016;-96
2022/12/19 16:54:08;;;;;;;;;;;7.60;99.90;;;;;;6009815;23;20033;-95
2022/12/19 17:00:30;;;;;;;;;;;;;;;;;;;;;
2022/12/19 17:03:08;;;;;;;17.33;11.35;;;7.50;99.90;;;;;;6041092;23;20014;-93
2022/12/19 17:06:12;;;;;;;14.70;11.75;;;7.70;99.90;;;;;;6040773;23;20396;-95
2022/12/19 17:08:40;;;;;;;17.10;12.38;;;7.60;99.90;;;;;;6039513;23;20339;-92
2022/12/19 17:24:32;;;;;;;16.88;11.27;;;7.50;99.90;;;;;;6062389;23;20121;-96
2022/12/19 17:27:01;;;;;;;15.98;11.50;;;7.10;99.90;;;;;;6199934;23;20050;-96
2022/12/19 17:29:34;;;;;;;21.20;11.85;;;7.40;99.90;;;;;;6199007;23;20016;-96
2022/12/19 17:32:05;;;;;;;18.08;11.77;;;7.50;99.90;;;;;;6196960;23;20062;-96
2022/12/19 17:34:42;;;;;;;15.52;11.23;;;7.00;99.90;;;;;;6205931;23;20023;-96
2022/12/19 17:37:14;;;;;;;16.92;11.02;;;7.40;99.90;;;;;;6206957;23;20091;-96
2022/12/19 17:39:41;;;;;;;19.02;10.63;;;7.60;99.90;;;;;;6205581;23;20031;-96
2022/12/19 17:42:20;;;;;;;17.83;10.63;;;7.60;99.90;;;;;;6225880;23;20016;-96
2022/12/19 17:44:46;;;;;;;17.02;11.07;;;7.60;99.90;;;;;;6209154;23;20027;-96
2022/12/19 17:47:15;;;;;;;19.05;11.38;;;7.50;99.90;;;;;;6195855;23;20344;-94
2022/12/19 17:49:41;;;;;;;17.73;11.07;;;7.60;99.90;;;;;;6195812;23;20020;-95
2022/12/19 17:52:13;;;;;;;18.67;10.85;;;7.40;99.90;;;;;;6196845;23;20020;-94
2022/12/19 17:54:40;;;;;;;16.65;10.40;;;7.10;99.90;;;;;;6200652;23;20016;-96
2022/12/19 17:57:14;;;;;;;16.83;10.70;;;7.50;99.90;;;;;;6221944;23;20074;-95
2022/12/19 17:59:52;;;;;;;17.63;9.93;;;7.60;99.90;;;;;;6206856;23;20038;-96
2022/12/19 18:02:42;;;;;;;13.80;9.60;;;7.50;99.90;;;;;;6206801;23;20560;-96
2022/12/19 18:05:34;;;;;;;16.58;9.88;;;7.60;99.90;;;;;;6218722;23;20020;-96
2022/12/19 18:08:31;;;;;;;15.25;9.60;;;7.50;99.90;;;;;;6242797;23;20028;-96
2022/12/19 18:11:12;;;;;;;21.98;10.18;;;7.30;99.90;;;;;;6215341;23;20076;-96
2022/12/19 18:13:45;;;;;;;18.13;10.45;;;7.30;99.90;;;;;;6236094;23;20095;-93
2022/12/19 18:16:13;;;;;;;16.35;10.25;;;7.40;99.90;;;;;;6189349;23;20020;-95
2022/12/19 18:18:39;;;;;;;17.08;10.45;;;7.20;99.90;;;;;;6190032;23;20721;-95
2022/12/19 18:21:05;;;;;;;14.45;10.43;;;7.40;99.90;;;;;;6191566;23;20048;-96
2022/12/19 18:23:34;;;;;;;13.13;8.93;;;7.20;99.90;;;;;;6218788;23;20016;-96
2022/12/19 18:26:10;;;;;;;17.85;9.40;;;7.30;99.90;;;;;;6191575;23;20063;-95
2022/12/19 18:28:47;;;;;;;18.48;10.23;;;7.50;99.90;;;;;;6197155;23;20463;-96
2022/12/19 18:31:22;;;;;;;16.17;9.65;;;7.20;99.90;;;;;;6195598;23;20116;-96
2022/12/19 18:33:52;;;;;;;17.83;9.98;;;7.20;99.90;;;;;;6192686;23;20465;-96
2022/12/19 18:36:30;;;;;;;21.13;11.00;;;7.70;99.90;;;;;;6189771;23;20040;-96
2022/12/19 18:39:16;;;;;;;16.15;9.85;;;7.00;99.90;;;;;;6169492;23;20104;-94
2022/12/19 18:41:42;;;;;;;18.05;10.13;;;7.30;99.90;;;;;;6190221;23;20020;-95
2022/12/19 18:44:08;;;;;;;15.63;10.38;;;7.10;99.90;;;;;;6189235;23;20473;-96
2022/12/19 18:46:35;;;;;;;14.70;10.05;;;7.10;99.90;;;;;;6186235;23;20020;-95
2022/12/19 18:49:01;;;;;;;15.50;9.35;;;7.20;99.90;;;;;;6186529;23;20044;-95
2022/12/19 18:51:27;;;;;;;15.43;9.52;;;7.00;99.90;;;;;;6185540;23;20349;-96
2022/12/19 18:53:53;;;;;;;16.75;9.90;;;7.90;99.90;;;;;;6210917;23;20020;-95
2022/12/19 18:56:18;;;;;;;19.73;10.65;;;7.30;99.90;;;;;;6185593;23;20597;-95
2022/12/19 18:58:44;;;;;;;16.13;9.80;;;7.20;99.90;;;;;;6190388;23;20019;-96
2022/12/19 19:01:16;;;;;;;15.77;9.30;;;7.20;99.90;;;;;;6187986;23;20064;-95
2022/12/19 19:03:50;;;;;;;16.80;10.00;;;7.30;99.90;;;;;;6184982;23;20078;-93
2022/12/19 19:06:20;;;;;;;16.77;9.23;;;7.10;99.90;;;;;;6183421;23;20021;-91
2022/12/19 19:08:47;;;;;;;17.05;9.68;;;7.20;99.90;;;;;;6183310;23;20034;-92
2022/12/19 19:11:13;;;;;;;14.38;8.85;;;7.30;99.90;;;;;;6184340;23;20535;-92
2022/12/19 19:13:39;;;;;;;14.90;8.77;;;7.20;99.90;;;;;;6183451;23;20020;-93
2022/12/19 19:16:15;;;;;;;15.18;9.48;;;7.20;99.90;;;;;;6183931;23;20024;-95
2022/12/19 19:18:43;;;;;;;16.15;8.70;;;7.20;99.90;;;;;;6184615;23;20079;-93
2022/12/19 19:21:11;;;;;;;14.23;8.85;;;7.20;99.90;;;;;;6184407;23;20016;-95
2022/12/19 19:23:43;;;;;;;13.98;8.70;;;7.30;99.90;;;;;;6184438;23;20075;-93
2022/12/19 19:26:10;;;;;;;12.45;7.65;;;7.20;99.90;;;;;;6184568;23;20016;-94
2022/12/19 19:28:38;;;;;;;17.75;8.70;;;7.20;99.90;;;;;;6184551;23;20012;-93
2022/12/19 19:31:07;;;;;;;16.13;9.52;;;7.30;99.90;;;;;;6185294;23;20021;-93
2022/12/19 19:33:38;;;;;;;17.45;8.70;;;7.20;99.90;;;;;;6185248;23;20098;-94
2022/12/19 19:36:09;;;;;;;14.52;8.48;;;7.20;99.90;;;;;;6185544;23;20017;-94
2022/12/19 19:38:36;;;;;;;12.95;8.40;;;7.20;99.90;;;;;;6185787;23;20020;-94
2022/12/19 19:41:02;;;;;;;13.80;8.23;;;7.10;99.90;;;;;;6185130;23;20063;-92
2022/12/19 19:43:32;;;;;;;13.88;8.90;;;7.30;99.90;;;;;;6185663;23;20441;-92
2022/12/19 19:45:59;;;;;;;14.15;8.20;;;7.30;99.90;;;;;;6183783;23;20071;-91
2022/12/19 19:48:25;;;;;;;15.80;8.45;;;7.30;99.90;;;;;;6185067;23;20596;-90
2022/12/19 19:50:51;;;;;;;14.90;8.43;;;7.20;99.90;;;;;;6184285;23;20106;-91
2022/12/19 19:53:17;;;;;;;15.25;8.73;;;7.70;99.90;;;;;;6184951;23;20020;-94
2022/12/19 19:55:42;;;;;;;11.57;7.60;;;7.30;99.90;;;;;;6185031;23;20027;-92
2022/12/19 19:58:08;;;;;;;15.32;8.02;;;7.40;99.90;;;;;;6183796;23;20051;-95
2022/12/19 20:00:34;;;;;;;13.77;8.40;;;7.40;99.90;;;;;;6185755;23;20020;-93
2022/12/19 20:03:00;;;;;;;15.68;8.77;;;7.30;99.90;;;;;;6186473;23;20017;-96
2022/12/19 20:05:26;;;;;;;18.25;7.63;;;7.30;99.90;;;;;;6187254;23;20715;-92
2022/12/19 20:07:52;;;;;;;12.80;7.72;;;7.30;99.90;;;;;;6187385;23;20016;-93
2022/12/19 20:10:18;;;;;;;12.75;8.55;;;7.40;99.90;;;;;;6184748;23;20016;-94
2022/12/19 20:12:43;;;;;;;13.43;7.70;;;7.30;99.90;;;;;;6184969;23;20086;-92
2022/12/19 20:15:10;;;;;;;13.45;8.52;;;7.20;99.90;;;;;;6184890;23;20013;-90
2022/12/19 20:17:36;;;;;;;12.68;7.70;;;7.20;99.90;;;;;;6189281;23;20031;-92
2022/12/19 20:20:03;;;;;;;16.58;8.15;;;7.20;99.90;;;;;;6191651;23;20028;-92
2022/12/19 20:22:28;;;;;;;21.95;7.88;;;7.10;99.90;;;;;;6191854;23;20793;-93
2022/12/19 20:24:55;;;;;;;12.30;7.80;;;7.30;99.90;;;;;;6191618;23;20023;-92
2022/12/19 20:27:21;;;;;;;11.05;7.32;;;7.30;99.90;;;;;;6192866;23;20024;-95
2022/12/19 20:29:46;;;;;;;11.57;8.18;;;7.40;99.90;;;;;;6191296;23;20459;-94
2022/12/19 20:32:13;;;;;;;10.63;6.97;;;7.30;99.90;;;;;;6192600;23;20077;-94
2022/12/19 20:34:39;;;;;;;12.35;7.53;;;7.40;99.90;;;;;;6192051;23;20096;-95